KCHS/CHS METAR and TAF weather

Enter ICAO airport designator
Station Type Date Time Source
KCHS METAR 2019/08/25 17:56 UTC NOAA

KCHS 251756Z 02010KT 10SM BKN025 BKN029 27/20 A3004 RMK AO2 SLP171 T02720200 10278 20200 58010


Station Type Date Time Source
KCHS Decoded METAR 2019/08/25 17:56 UTC NOAA

Station name not available
Aug 25, 2019 - 01:56 PM EDT / 2019.08.25 1756 UTC
Wind: from the NNE (020 degrees) at 12 MPH (10 KT):0
Visibility: 10 mile(s):0
Sky conditions: mostly cloudy
Temperature: 81.0 F (27.2 C)
Dew Point: 68.0 F (20.0 C)
Relative Humidity: 64%
Pressure (altimeter): 30.04 in. Hg (1017 hPa)
Pressure tendency: 0.03 inches (1.0 hPa) lower than three hours ago
ob: KCHS 251756Z 02010KT 10SM BKN025 BKN029 27/20 A3004 RMK AO2 SLP171 T02720200 10278 20200 58010
cycle: 18

Station Type Date Time Source
KCHS TAF 2019/08/25 18:30 UTC NOAA

TAF KCHS 251729Z 2518/2618 02010G16KT P6SM BKN020
TEMPO 2518/2522 SCT025
FM252200 03008KT P6SM OVC020
FM261500 03007KT P6SM SCT035

Example: see airport list